Time;durP1;ratioP1;P1;durP2;ratioP2;P2;SDS_P1;SDS_P2;PMS_P1;PMS_P2;Temp;Humidity;BMP_temperature;BMP_pressure;BME280_temperature;BME280_humidity;BME280_pressure;Samples;Min_cycle;Max_cycle;Signal;HPM_P1;HPM_P2
2021/06/10 00:00:58;;;;;;;;;;;;;;;14.98;93.29;100974.13;5074264;28;19982;-64
2021/06/10 00:03:25;;;;;;;;;;;15.20;99.90;;;14.85;94.80;100964.94;5074457;28;19928;-65
2021/06/10 00:05:53;;;;;;;;;;;15.20;99.90;;;14.65;93.10;100960.06;5074217;28;20423;-63
2021/06/10 00:08:20;;;;;;;;;;;15.00;99.90;;;14.57;93.53;100955.38;5074752;28;19924;-63
2021/06/10 00:10:49;;;;;;;;;;;14.90;99.90;;;14.61;94.42;100948.19;5074415;28;19924;-63
2021/06/10 00:13:17;;;;;;;;;;;14.90;99.90;;;14.66;95.23;100937.16;5074903;28;19924;-63
2021/06/10 00:15:45;;;;;;;;;;;14.90;99.90;;;14.66;94.59;100935.25;5074436;28;19935;-62
2021/06/10 00:18:12;;;;;;;;;;;15.00;99.90;;;14.65;94.98;100933.63;5074502;28;20290;-65
2021/06/10 00:20:40;;;;;;;;;;;15.00;99.90;;;14.67;95.23;100923.25;5074109;28;19925;-64
2021/06/10 00:23:08;;;;;;;;;;;15.00;99.90;;;14.76;94.45;100917.84;5074661;28;19978;-63
2021/06/10 00:25:36;;;;;;;;;;;14.90;99.90;;;14.84;94.63;100914.34;5074024;28;19951;-63
2021/06/10 00:28:05;;;;;;;;;;;15.00;99.90;;;14.91;94.54;100916.59;5074501;28;19924;-63
2021/06/10 00:30:33;;;;;;;;;;;15.10;99.90;;;15.01;95.94;100914.41;5074032;28;19928;-63
2021/06/10 00:33:00;;;;;;;;;;;15.20;99.90;;;15.04;94.76;100910.22;5074467;28;19929;-63
2021/06/10 00:35:30;;;;;;;;;;;15.30;99.90;;;15.10;95.40;100914.41;5073698;28;19935;-63
2021/06/10 00:37:59;;;;;;;;;;;15.30;99.90;;;15.15;95.26;100908.81;5074318;28;19925;-63
2021/06/10 00:40:27;;;;;;;;;;;15.40;99.90;;;15.20;95.57;100901.28;5073863;28;20412;-64
2021/06/10 00:42:55;;;;;;;;;;;15.40;99.90;;;15.32;95.29;100900.66;5074304;28;19978;-63
2021/06/10 00:45:24;;;;;;;;;;;15.60;99.90;;;15.45;93.53;100896.16;5073540;28;19968;-63
2021/06/10 00:47:52;;;;;;;;;;;15.60;99.90;;;15.54;92.78;100889.63;5074039;28;19925;-63
2021/06/10 00:50:21;;;;;;;;;;;15.60;99.90;;;15.57;91.59;100888.19;5073567;28;19924;-63
2021/06/10 00:52:49;;;;;;;;;;;15.70;99.90;;;15.55;90.42;100883.06;5074026;28;19935;-63
2021/06/10 00:55:16;;;;;;;;;;;15.60;99.90;;;15.49;89.75;100883.53;5073703;28;19925;-63
2021/06/10 00:57:44;;;;;;;;;;;15.60;99.90;;;15.40;90.06;100866.38;5073884;28;19936;-63
2021/06/10 01:00:13;;;;;;;;;;;15.50;99.90;;;15.43;90.97;100871.19;5073467;28;19954;-63
2021/06/10 01:02:42;;;;;;;;;;;15.50;99.90;;;15.48;90.52;100858.22;5073916;28;19936;-63
2021/06/10 01:05:10;;;;;;;;;;;15.60;99.90;;;15.48;90.44;100860.13;5073289;28;19924;-64
2021/06/10 01:07:44;;;;;;;;;;;15.60;99.90;;;15.45;89.63;100856.09;5073836;28;19928;-63
2021/06/10 01:10:19;;;;;;;;;;;15.60;99.90;;;15.44;90.03;100851.00;5073587;28;19978;-63
2021/06/10 01:12:54;;;;;;;;;;;15.60;99.90;;;15.30;90.12;100846.50;5073085;28;19932;-63
2021/06/10 01:15:22;;;;;;;;;;;15.50;99.90;;;15.17;91.41;100842.00;5073345;28;19928;-64
2021/06/10 01:17:51;;;;;;;;;;;15.50;99.90;;;15.20;91.30;100824.19;5073499;28;19928;-63
2021/06/10 01:20:20;;;;;;;;;;;15.50;99.90;;;15.15;89.87;100817.00;5073035;28;19999;-63
2021/06/10 01:23:03;;;;;;;;;;;15.40;99.90;;;15.04;90.74;100815.72;5073278;28;19931;-64
2021/06/10 01:25:43;;;;;;;;;;;15.30;99.90;;;14.95;90.93;100811.38;5073030;28;19925;-64
2021/06/10 01:28:14;;;;;;;;;;;15.30;99.90;;;15.04;91.08;100804.03;5073218;28;19931;-65
2021/06/10 01:30:45;;;;;;;;;;;15.30;99.90;;;15.12;90.67;100809.47;5072876;28;19978;-63
2021/06/10 01:33:14;;;;;;;;;;;15.40;99.90;;;15.18;90.09;100800.03;5073321;28;19931;-63
2021/06/10 01:35:45;;;;;;;;;;;15.40;99.90;;;15.22;89.90;100795.53;5072631;28;19931;-66
2021/06/10 01:38:13;;;;;;;;;;;15.50;99.90;;;15.33;90.00;100794.09;5073047;28;20421;-63
2021/06/10 01:40:41;;;;;;;;;;;15.50;99.90;;;15.42;89.36;100787.81;5072628;28;19924;-63
2021/06/10 01:43:09;;;;;;;;;;;15.60;99.90;;;15.52;88.32;100787.53;5073152;28;19951;-63
2021/06/10 01:45:38;;;;;;;;;;;15.70;99.90;;;15.61;86.72;100791.03;5072817;28;19925;-63
2021/06/10 01:48:06;;;;;;;;;;;15.80;99.90;;;15.65;86.18;100779.16;5072745;28;20678;-63
2021/06/10 01:50:34;;;;;;;;;;;15.80;99.90;;;15.74;85.96;100784.59;5072405;28;19936;-65
2021/06/10 01:53:01;;;;;;;;;;;15.80;99.90;;;15.77;85.37;100773.03;5073025;28;19935;-64
2021/06/10 01:55:29;;;;;;;;;;;15.90;99.90;;;15.70;85.55;100779.00;5072706;28;19924;-63
2021/06/10 01:57:58;;;;;;;;;;;15.80;99.90;;;15.69;84.95;100776.56;5072739;28;19925;-63
2021/06/10 02:00:25;;;;;;;;;;;15.80;99.90;;;15.63;84.90;100767.78;5072191;28;19925;-64
2021/06/10 02:02:54;;;;;;;;;;;15.80;99.90;;;15.50;85.02;100773.44;5072711;28;20771;-63
2021/06/10 02:05:23;;;;;;;;;;;15.60;99.90;;;15.45;86.10;100768.09;5072407;28;19924;-63
2021/06/10 02:07:50;;;;;;;;;;;15.60;99.90;;;15.27;86.43;100762.69;5072551;28;19924;-64
2021/06/10 02:10:22;;;;;;;;;;;15.50;99.90;;;15.15;87.17;100756.28;5072562;28;19935;-63
2021/06/10 02:12:49;;;;;;;;;;;15.40;99.90;;;15.20;86.91;100756.09;5072483;28;19932;-64
2021/06/10 02:15:18;;;;;;;;;;;15.40;99.90;;;15.19;86.97;100752.59;5072246;28;19978;-63
2021/06/10 02:17:46;;;;;;;;;;;15.40;99.90;;;15.12;86.66;100741.38;5072506;28;19955;-63
2021/06/10 02:20:17;;;;;;;;;;;15.40;99.90;;;15.18;87.45;100752.91;5072318;28;19994;-63
2021/06/10 02:22:44;;;;;;;;;;;15.40;99.90;;;15.28;87.18;100753.41;5072490;28;19925;-64
2021/06/10 02:25:12;;;;;;;;;;;15.50;99.90;;;15.36;86.32;100748.22;5071140;28;19924;-63
2021/06/10 02:27:40;;;;;;;;;;;15.60;99.90;;;15.40;85.71;100747.28;5072360;28;19925;-63
2021/06/10 02:30:09;;;;;;;;;;;15.60;99.90;;;15.39;84.26;100744.88;5071856;28;19929;-63
2021/06/10 02:32:37;;;;;;;;;;;15.60;99.90;;;15.37;84.69;100747.94;5071975;28;20356;-64
2021/06/10 02:35:05;;;;;;;;;;;15.60;99.90;;;15.39;85.10;100740.22;5071884;28;20362;-63
2021/06/10 02:37:35;;;;;;;;;;;15.60;99.90;;;15.37;84.69;100739.75;5072212;28;19924;-63
2021/06/10 02:40:03;;;;;;;;;;;15.60;99.90;;;15.36;84.88;100738.13;5072024;28;19924;-63
2021/06/10 02:42:31;;;;;;;;;;;15.60;99.90;;;15.33;85.04;100730.63;5072152;28;20027;-64
2021/06/10 02:44:58;;;;;;;;;;;15.60;99.90;;;15.34;84.08;100732.22;5071752;28;19936;-63
2021/06/10 02:47:27;;;;;;;;;;;15.50;99.90;;;15.36;84.62;100729.97;5072013;28;20389;-64
2021/06/10 02:49:55;;;;;;;;;;;15.50;99.90;;;15.39;84.93;100731.25;5071809;28;19924;-63
2021/06/10 02:52:23;;;;;;;;;;;15.60;99.90;;;15.37;84.88;100725.31;5072011;28;19928;-64
2021/06/10 02:54:52;;;;;;;;;;;15.60;99.90;;;15.31;84.48;100730.94;5071722;28;19932;-63
2021/06/10 02:57:21;;;;;;;;;;;15.60;99.90;;;15.30;84.25;100732.06;5072093;28;19943;-64
2021/06/10 02:59:49;;;;;;;;;;;15.50;99.90;;;15.39;84.64;100731.25;5071255;28;19925;-63
2021/06/10 03:02:16;;;;;;;;;;;15.50;99.90;;;15.43;84.45;100727.56;5071887;28;19932;-63
2021/06/10 03:04:45;;;;;;;;;;;15.60;99.90;;;15.38;84.29;100726.94;5071607;28;19928;-63
2021/06/10 03:07:13;;;;;;;;;;;15.50;99.90;;;15.39;84.81;100725.78;5072088;28;19932;-63
2021/06/10 03:09:41;;;;;;;;;;;15.60;99.90;;;15.44;85.11;100733.81;5071064;28;19932;-63
2021/06/10 03:12:13;;;;;;;;;;;15.60;99.90;;;15.50;84.73;100729.81;5071756;28;19924;-64
2021/06/10 03:14:44;;;;;;;;;;;15.70;99.90;;;15.53;83.81;100727.25;5071668;28;19936;-63
2021/06/10 03:17:13;;;;;;;;;;;15.70;99.90;;;15.54;83.90;100728.03;5072093;28;19924;-63
2021/06/10 03:19:41;;;;;;;;;;;15.70;99.90;;;15.59;83.59;100725.97;5071166;28;20224;-63
2021/06/10 03:22:08;;;;;;;;;;;15.70;99.90;;;15.55;81.45;100729.63;5071793;28;19929;-64
2021/06/10 03:24:37;;;;;;;;;;;15.70;99.90;;;15.39;82.80;100729.31;5071651;28;19932;-63
2021/06/10 03:27:06;;;;;;;;;;;15.60;99.90;;;15.19;84.37;100714.47;5072070;28;19994;-63
2021/06/10 03:29:35;;;;;;;;;;;15.40;99.90;;;15.10;84.95;100713.69;5070912;28;19925;-64
2021/06/10 03:32:02;;;;;;;;;;;15.40;99.90;;;15.01;84.62;100712.88;5071707;28;19928;-66
2021/06/10 03:34:30;;;;;;;;;;;15.30;99.90;;;15.13;84.35;100710.31;5071367;28;19924;-63
2021/06/10 03:36:58;;;;;;;;;;;15.40;99.90;;;15.37;83.91;100707.06;5073851;28;19966;-63
2021/06/10 03:39:26;;;;;;;;;;;15.60;99.90;;;15.65;82.06;100705.56;5074553;28;20194;-64
2021/06/10 03:41:54;;;;;;;;;;;15.80;99.90;;;15.88;80.45;100702.56;5075294;28;19924;-64
2021/06/10 03:44:21;;;;;;;;;;;16.10;99.90;;;16.09;78.88;100701.50;5075392;28;19951;-64
2021/06/10 03:46:51;;;;;;;;;;;16.30;99.90;;;16.22;78.22;100703.22;5074879;28;19982;-63
2021/06/10 03:49:18;;;;;;;;;;;16.40;99.90;;;16.30;77.48;100696.88;5074658;28;19935;-65
2021/06/10 03:51:49;;;;;;;;;;;16.50;99.90;;;16.35;76.66;100693.19;5075127;28;19924;-65
2021/06/10 03:54:18;;;;;;;;;;;16.60;99.90;;;16.33;76.52;100693.50;5075328;28;19970;-65
2021/06/10 03:56:46;;;;;;;;;;;16.60;99.90;;;16.31;76.70;100694.97;5074624;28;19935;-63
2021/06/10 03:59:13;;;;;;;;;;;16.60;99.90;;;16.31;76.54;100695.78;5074349;28;20060;-63
2021/06/10 04:01:41;;;;;;;;;;;16.60;99.90;;;16.33;76.62;100690.78;5074728;28;19970;-63
2021/06/10 04:04:10;;;;;;;;;;;16.60;99.90;;;16.38;75.87;100690.56;5075153;28;19925;-63
2021/06/10 04:06:38;;;;;;;;;;;16.70;99.90;;;16.41;75.71;100694.59;5074467;28;19986;-65
2021/06/10 04:09:06;;;;;;;;;;;16.70;99.90;;;16.37;75.63;100697.19;5074383;28;20401;-65
2021/06/10 04:11:34;;;;;;;;;;;16.60;99.90;;;16.36;75.67;100714.66;5074622;28;19978;-65
2021/06/10 04:14:01;;;;;;;;;;;16.60;99.90;;;16.38;75.59;100712.41;5074786;28;19939;-64
2021/06/10 04:16:28;;;;;;;;;;;16.60;99.90;;;16.38;75.42;100717.09;5074348;28;19929;-63
2021/06/10 04:18:55;;;;;;;;;;;16.50;99.90;;;16.35;75.48;100718.53;5074232;28;19924;-63
2021/06/10 04:21:24;;;;;;;;;;;16.50;99.90;;;16.22;76.12;100721.50;5074551;28;19929;-64
2021/06/10 04:23:52;;;;;;;;;;;16.50;99.90;;;16.12;76.90;100724.59;5074533;28;19931;-64
2021/06/10 04:26:19;;;;;;;;;;;16.30;99.90;;;16.09;77.07;100727.97;5074135;28;19951;-64
2021/06/10 04:28:47;;;;;;;;;;;16.30;99.90;;;16.01;76.87;100717.94;5074235;28;19931;-63
2021/06/10 04:31:17;;;;;;;;;;;16.30;99.90;;;15.93;76.40;100707.88;5074004;28;19988;-63
2021/06/10 04:33:45;;;;;;;;;;;16.20;99.90;;;15.79;76.90;100710.78;5074521;28;20266;-64
2021/06/10 04:36:13;;;;;;;;;;;16.20;99.90;;;15.81;77.24;100706.63;5073975;28;19928;-63
2021/06/10 04:38:42;;;;;;;;;;;16.10;99.90;;;15.82;78.01;100704.69;5074128;28;19932;-64
2021/06/10 04:41:10;;;;;;;;;;;16.20;99.90;;;15.84;78.12;100707.88;5074146;28;19925;-63
2021/06/10 04:43:37;;;;;;;;;;;16.20;99.90;;;15.88;77.56;100703.38;5074419;28;19925;-63
2021/06/10 04:46:04;;;;;;;;;;;16.20;99.90;;;16.01;77.44;100699.63;5073656;28;19925;-63
2021/06/10 04:48:32;;;;;;;;;;;16.30;99.90;;;16.14;76.38;100695.84;5073431;28;20003;-63
2021/06/10 04:51:00;;;;;;;;;;;16.50;99.90;;;16.17;76.45;100692.47;5073881;28;19963;-64
2021/06/10 04:53:27;;;;;;;;;;;16.50;99.90;;;16.19;76.01;100698.41;5074130;28;19925;-64
2021/06/10 04:55:57;;;;;;;;;;;16.60;99.90;;;16.24;76.00;100695.47;5073477;28;19931;-63
2021/06/10 04:58:24;;;;;;;;;;;16.50;99.90;;;16.28;75.91;100698.34;5073914;28;19928;-63
2021/06/10 05:00:51;;;;;;;;;;;16.60;99.90;;;16.31;76.16;100698.50;5073715;28;19932;-63
2021/06/10 05:03:21;;;;;;;;;;;16.70;99.90;;;16.35;76.25;100707.59;5074026;28;19924;-64
2021/06/10 05:05:49;;;;;;;;;;;16.70;99.90;;;16.38;76.33;100725.28;5073513;28;19935;-63
2021/06/10 05:08:16;;;;;;;;;;;16.70;99.90;;;16.35;76.39;100723.22;5073644;28;19934;-65
2021/06/10 05:10:43;;;;;;;;;;;16.70;99.90;;;16.29;76.68;100729.97;5073151;28;19932;-63
2021/06/10 05:13:12;;;;;;;;;;;16.60;99.90;;;16.23;77.12;100732.06;5073772;28;19924;-65
2021/06/10 05:15:39;;;;;;;;;;;16.60;99.90;;;16.22;77.18;100735.16;5073243;28;19996;-64
2021/06/10 05:18:07;;;;;;;;;;;16.50;99.90;;;16.17;77.03;100727.94;5073527;28;19932;-64
2021/06/10 05:20:34;;;;;;;;;;;16.50;99.90;;;15.94;77.01;100729.34;5072707;28;19978;-64
2021/06/10 05:23:01;;;;;;;;;;;16.30;99.90;;;15.82;77.95;100726.50;5073485;28;19978;-64
2021/06/10 05:25:29;;;;;;;;;;;16.20;99.90;;;15.74;78.66;100728.16;5072870;28;19932;-64
2021/06/10 05:27:56;;;;;;;;;;;16.10;99.90;;;15.70;78.86;100729.13;5073530;28;19925;-63
2021/06/10 05:30:25;;;;;;;;;;;16.10;99.90;;;15.68;79.19;100731.38;5072883;28;20255;-63
2021/06/10 05:32:52;;;;;;;;;;;16.10;99.90;;;15.75;79.34;100726.19;5073445;28;19924;-63
2021/06/10 05:35:19;;;;;;;;;;;16.10;99.90;;;16.00;78.83;100724.50;5072961;28;19924;-63
2021/06/10 05:37:46;;;;;;;;;;;16.30;99.90;;;16.31;77.38;100730.44;5073364;28;20292;-64
2021/06/10 05:40:14;;;;;;;;;;;16.60;99.90;;;16.55;76.42;100727.91;5072672;28;19931;-63
2021/06/10 05:42:41;;;;;;;;;;;16.80;99.90;;;16.72;75.49;100730.50;5073211;28;20365;-63
2021/06/10 05:45:10;;;;;;;;;;;17.00;99.90;;;16.76;75.07;100717.78;5072887;28;19929;-65
2021/06/10 05:47:39;;;;;;;;;;;17.10;99.90;;;16.94;74.69;100713.78;5072946;28;19925;-66
2021/06/10 05:50:08;;;;;;;;;;;17.30;99.90;;;17.05;74.01;100719.66;5072662;28;19958;-65
2021/06/10 05:52:36;;;;;;;;;;;17.40;99.90;;;17.18;73.61;100712.28;5072981;28;20408;-64
2021/06/10 05:55:03;;;;;;;;;;;17.50;99.90;;;17.37;73.18;100718.84;5072507;28;19928;-64
2021/06/10 05:57:31;;;;;;;;;;;17.70;99.90;;;17.74;72.40;100725.22;5072783;28;19928;-64
2021/06/10 05:59:58;;;;;;;;;;;17.90;99.90;;;18.51;70.21;100723.44;5072423;28;20270;-64
2021/06/10 06:02:25;;;;;;;;;;;18.50;99.90;;;19.39;66.99;100723.28;5072941;28;19932;-64
2021/06/10 06:04:54;;;;;;;;;;;19.40;99.90;;;20.37;63.24;100731.59;5072278;28;20337;-63
2021/06/10 06:07:21;;;;;;;;;;;;;;;21.34;59.95;100723.06;5073037;28;19924;-64
2021/06/10 06:09:49;;;;;;;;;;;22.10;99.90;;;22.30;56.28;100720.84;5072304;28;20003;-64
2021/06/10 06:12:16;;;;;;;;;;;22.60;99.90;;;23.12;53.40;100708.94;5072552;28;20399;-64
2021/06/10 06:14:45;;;;;;;;;;;23.20;99.90;;;23.76;52.06;100713.19;5072111;28;19925;-64
2021/06/10 06:17:13;;;;;;;;;;;23.50;99.90;;;24.03;51.10;100705.50;5072657;28;20031;-64
2021/06/10 06:19:40;;;;;;;;;;;24.10;99.90;;;23.86;51.51;100708.94;5072072;28;20287;-66
2021/06/10 06:22:10;;;;;;;;;;;24.50;99.90;;;24.14;50.82;100722.97;5072460;28;19928;-64
2021/06/10 06:24:38;;;;;;;;;;;24.80;99.90;;;24.85;49.30;100729.75;5072060;28;19978;-65
2021/06/10 06:27:07;;;;;;;;;;;25.30;99.90;;;25.64;46.53;100731.59;5072480;28;20321;-64
2021/06/10 06:29:34;;;;;;;;;;;26.20;99.90;;;26.32;44.68;100724.91;5071917;28;19947;-66
2021/06/10 06:32:01;;;;;;;;;;;26.70;99.90;;;26.80;44.07;100722.44;5072344;28;19977;-65
2021/06/10 06:34:28;;;;;;;;;;;26.90;99.90;;;27.05;43.07;100725.88;5072024;28;20389;-65
2021/06/10 06:36:55;;;;;;;;;;;27.20;99.90;;;27.32;42.67;100723.38;5072224;28;19928;-64
2021/06/10 06:39:24;;;;;;;;;;;27.40;99.90;;;27.72;41.90;100724.72;5071975;28;19986;-64
2021/06/10 06:41:52;;;;;;;;;;;27.80;99.90;;;27.81;41.96;100727.03;5072144;28;20306;-65
2021/06/10 06:44:19;;;;;;;;;;;28.10;99.90;;;27.94;41.16;100737.22;5072714;28;19924;-65
2021/06/10 06:46:46;;;;;;;;;;;28.50;99.90;;;28.02;41.30;100746.31;5072048;28;19928;-65
2021/06/10 06:49:13;;;;;;;;;;;29.10;99.90;;;28.07;40.55;100749.47;5071967;28;20432;-65
2021/06/10 06:51:40;;;;;;;;;;;29.20;99.90;;;28.16;40.08;100755.34;5071887;28;19924;-65
2021/06/10 06:54:08;;;;;;;;;;;29.40;99.90;;;27.92;40.20;100761.88;5072314;28;19925;-65
2021/06/10 06:56:36;;;;;;;;;;;;;;;27.90;40.76;100775.41;5071546;28;19925;-65
2021/06/10 06:59:04;;;;;;;;;;;29.70;99.90;;;28.09;40.53;100768.50;5071991;28;19928;-65
2021/06/10 07:01:31;;;;;;;;;;;29.90;99.90;;;27.80;41.34;100769.91;5071890;28;19928;-65
2021/06/10 07:03:58;;;;;;;;;;;29.90;99.90;;;27.16;42.43;100775.78;5072383;28;20285;-65
2021/06/10 07:06:26;;;;;;;;;;;29.60;99.90;;;26.69;43.82;100784.66;5071818;28;19928;-65
2021/06/10 07:08:53;;;;;;;;;;;29.00;99.90;;;26.27;44.80;100789.03;5071669;28;19950;-65
2021/06/10 07:11:20;;;;;;;;;;;28.00;99.90;;;25.77;45.83;100793.75;5073178;28;19924;-65
2021/06/10 07:13:49;;;;;;;;;;;27.10;99.90;;;25.34;47.02;100795.56;5075846;28;19935;-65
2021/06/10 07:16:16;;;;;;;;;;;26.60;99.90;;;25.23;48.48;100799.50;5075561;28;19925;-65
2021/06/10 07:18:43;;;;;;;;;;;26.40;99.90;;;25.25;48.11;100800.69;5075788;28;20378;-65
2021/06/10 07:21:11;;;;;;;;;;;26.30;99.90;;;24.96;48.22;100794.22;5075495;28;19931;-65
2021/06/10 07:23:38;;;;;;;;;;;25.90;99.90;;;24.61;49.24;100795.94;5075686;28;19928;-65
2021/06/10 07:26:05;;;;;;;;;;;25.40;99.90;;;24.33;50.36;100796.53;5075329;28;19925;-65
2021/06/10 07:28:32;;;;;;;;;;;25.00;99.90;;;23.96;49.65;100804.88;5075492;28;19925;-64
2021/06/10 07:31:01;;;;;;;;;;;24.70;99.90;;;23.86;51.02;100806.34;5075418;28;19924;-64
2021/06/10 07:33:28;;;;;;;;;;;24.50;99.90;;;23.75;50.83;100810.97;5075596;28;19951;-64
2021/06/10 07:35:56;;;;;;;;;;;24.30;99.90;;;23.59;52.03;100813.16;5075105;28;19947;-64
2021/06/10 07:38:23;;;;;;;;;;;24.20;99.90;;;23.44;53.08;100808.66;5075313;28;19928;-64
2021/06/10 07:40:50;;;;;;;;;;;24.00;99.90;;;23.42;53.70;100807.44;5075136;28;19931;-64
2021/06/10 07:43:17;;;;;;;;;;;24.00;99.90;;;23.56;53.98;100813.16;5075485;28;19932;-65
2021/06/10 07:45:45;;;;;;;;;;;24.10;99.90;;;23.61;54.62;100818.31;5074892;28;19931;-65
2021/06/10 07:48:14;;;;;;;;;;;24.20;99.90;;;23.62;53.95;100815.16;5075163;28;19928;-64
2021/06/10 07:50:42;;;;;;;;;;;24.20;99.90;;;23.62;53.85;100820.69;5074734;28;19931;-64
2021/06/10 07:53:09;;;;;;;;;;;24.20;99.90;;;23.61;54.69;100818.31;5075365;28;19931;-65
2021/06/10 07:55:36;;;;;;;;;;;24.20;99.90;;;23.58;55.02;100819.88;5074712;28;19952;-65
2021/06/10 07:58:03;;;;;;;;;;;24.10;99.90;;;23.48;54.84;100816.97;5075081;28;19928;-64
2021/06/10 08:00:30;;;;;;;;;;;24.00;99.90;;;23.39;55.82;100823.59;5074733;28;19929;-65
2021/06/10 08:03:01;;;;;;;;;;;;;;;23.31;56.90;100815.56;5075050;28;20358;-64
2021/06/10 08:05:30;;;;;;;;;;;23.90;99.90;;;23.39;57.55;100815.31;5074495;28;19928;-64
2021/06/10 08:07:57;;;;;;;;;;;23.90;99.90;;;23.54;58.17;100810.75;5075048;28;19947;-64
2021/06/10 08:10:24;;;;;;;;;;;24.10;99.90;;;23.61;57.40;100816.34;5074590;28;20354;-64
2021/06/10 08:12:52;;;;;;;;;;;24.10;99.90;;;23.75;57.21;100822.03;5074862;28;19928;-64
2021/06/10 08:15:19;;;;;;;;;;;24.30;99.90;;;23.88;57.26;100828.06;5074431;28;19931;-64
2021/06/10 08:17:47;;;;;;;;;;;24.40;99.90;;;23.98;57.29;100821.06;5074722;28;19928;-65
2021/06/10 08:20:16;;;;;;;;;;;24.50;99.90;;;24.03;57.09;100816.00;5074326;28;19928;-64
2021/06/10 08:22:45;;;;;;;;;;;24.50;99.90;;;24.04;56.05;100828.63;5073877;28;20030;-65
2021/06/10 08:25:13;;;;;;;;;;;24.50;99.90;;;24.00;55.20;100821.47;5074145;28;19928;-64
2021/06/10 08:27:40;;;;;;;;;;;24.50;99.90;;;24.00;55.16;100821.47;5074852;28;20019;-65
2021/06/10 08:30:08;;;;;;;;;;;24.50;99.90;;;24.00;55.85;100821.47;5074370;28;19924;-65
2021/06/10 08:32:35;;;;;;;;;;;24.50;99.90;;;24.17;55.10;100820.88;5074818;28;19924;-64
2021/06/10 08:35:02;;;;;;;;;;;24.60;99.90;;;24.29;55.23;100826.91;5073923;28;19928;-64
2021/06/10 08:37:31;;;;;;;;;;;24.70;99.90;;;24.42;56.19;100824.63;5074282;28;19978;-65
2021/06/10 08:39:59;;;;;;;;;;;25.00;99.90;;;24.44;56.86;100831.38;5074127;28;20019;-65
2021/06/10 08:42:28;;;;;;;;;;;25.00;99.90;;;24.44;57.33;100825.03;5074489;28;19928;-65
2021/06/10 08:44:55;;;;;;;;;;;25.00;99.90;;;24.38;57.23;100826.56;5073637;28;20374;-65
2021/06/10 08:47:25;;;;;;;;;;;25.00;99.90;;;24.34;57.40;100820.25;5074454;28;20336;-65
2021/06/10 08:49:53;;;;;;;;;;;25.00;99.90;;;24.32;57.33;100834.44;5073592;28;20039;-65
2021/06/10 08:52:20;;;;;;;;;;;24.90;99.90;;;24.23;57.64;100825.66;5074316;28;19924;-65
2021/06/10 08:54:47;;;;;;;;;;;24.80;99.90;;;24.29;57.79;100823.34;5073580;28;19925;-65
2021/06/10 08:57:16;;;;;;;;;;;24.80;99.90;;;24.39;57.57;100830.94;5074091;28;20286;-65
2021/06/10 08:59:43;;;;;;;;;;;25.00;99.90;;;24.47;57.29;100832.56;5073270;28;19935;-64
2021/06/10 09:02:11;;;;;;;;;;;25.10;99.90;;;24.48;58.02;100832.19;5073880;28;20302;-65
2021/06/10 09:04:38;;;;;;;;;;;25.10;99.90;;;24.39;57.30;100833.69;5073487;28;19925;-65
2021/06/10 09:07:07;;;;;;;;;;;25.00;99.90;;;24.51;58.15;100830.63;5074046;28;19925;-65
2021/06/10 09:09:36;;;;;;;;;;;25.10;99.90;;;24.57;57.08;100836.59;5073358;28;19924;-63
2021/06/10 09:12:06;;;;;;;;;;;25.10;99.90;;;24.51;58.12;100833.41;5073285;28;19934;-65
2021/06/10 09:14:51;;;;;;;;;;;25.10;99.90;;;24.38;57.55;100832.09;5073219;28;20382;-65
2021/06/10 09:17:37;;;;;;;;;;;25.00;99.90;;;24.27;58.43;100836.75;5073928;28;20026;-63
2021/06/10 09:20:31;;;;;;;;;;;24.90;99.90;;;24.29;57.44;100846.25;5073110;28;20352;-66
2021/06/10 09:23:16;;;;;;;;;;;24.90;99.90;;;24.27;57.68;100842.28;5073698;28;19925;-65
2021/06/10 09:25:45;;;;;;;;;;;24.80;99.90;;;24.22;58.24;100843.44;5073046;28;19935;-65
2021/06/10 09:28:13;;;;;;;;;;;24.70;99.90;;;24.18;58.80;100841.81;5073305;28;20377;-65
2021/06/10 09:30:47;;;;;;;;;;;24.70;99.90;;;24.16;58.18;100842.19;5073056;28;19931;-65
2021/06/10 09:33:16;;;;;;;;;;;24.70;99.90;;;24.24;58.01;100837.53;5073560;28;19925;-65
2021/06/10 09:35:44;;;;;;;;;;;24.70;99.90;;;24.09;58.09;100852.34;5072576;28;19982;-66
2021/06/10 09:38:15;;;;;;;;;;;24.60;99.90;;;24.05;58.68;100857.03;5072999;28;19924;-65
2021/06/10 09:40:42;;;;;;;;;;;24.60;99.90;;;24.04;59.44;100861.00;5072879;28;19925;-65
2021/06/10 09:43:10;;;;;;;;;;;24.60;99.90;;;24.13;60.00;100867.81;5073279;28;20390;-63
2021/06/10 09:45:38;;;;;;;;;;;24.70;99.90;;;24.17;59.23;100867.84;5072438;28;20041;-65
2021/06/10 09:48:08;;;;;;;;;;;24.70;99.90;;;24.09;59.13;100866.16;5072823;28;19924;-63
2021/06/10 09:50:37;;;;;;;;;;;24.70;99.90;;;24.31;59.11;100876.28;5072595;28;20285;-64
2021/06/10 09:53:09;;;;;;;;;;;24.80;99.90;;;24.42;58.56;100875.19;5073198;28;19925;-63
2021/06/10 09:55:42;;;;;;;;;;;24.90;99.90;;;24.23;58.56;100869.06;5072374;28;19924;-63
2021/06/10 09:58:39;;;;;;;;;;;24.90;99.90;;;24.00;59.92;100872.00;5072748;28;19932;-63
2021/06/10 10:01:10;;;;;;;;;;;24.60;99.90;;;23.99;60.50;100875.91;5037763;28;19970;-65
2021/06/10 10:03:44;;;;;;;;;;;24.50;99.90;;;24.00;60.01;100876.72;5073098;28;20366;-65
2021/06/10 10:06:18;;;;;;;;;;;24.50;99.90;;;24.01;60.07;100879.13;5072225;28;19978;-66
2021/06/10 10:08:47;;;;;;;;;;;24.50;99.90;;;24.07;60.16;100879.56;5072673;28;19925;-65
2021/06/10 10:11:15;;;;;;;;;;;24.50;99.90;;;24.11;60.57;100880.41;5072459;28;19924;-63
2021/06/10 10:13:44;;;;;;;;;;;24.60;99.90;;;24.18;60.12;100872.19;5072731;28;19931;-65
2021/06/10 10:16:11;;;;;;;;;;;24.60;99.90;;;23.94;59.47;100884.56;5071800;28;19950;-63
2021/06/10 10:18:40;;;;;;;;;;;24.50;99.90;;;23.87;61.17;100884.47;5072327;28;19929;-65
2021/06/10 10:21:08;;;;;;;;;;;24.40;99.90;;;23.94;61.13;100879.03;5072539;28;19935;-65
2021/06/10 10:23:36;;;;;;;;;;;24.40;99.90;;;24.01;61.54;100890.16;5072625;28;19932;-65
2021/06/10 10:26:05;;;;;;;;;;;24.40;99.90;;;24.15;60.32;100876.53;5071879;28;19928;-65
2021/06/10 10:28:34;;;;;;;;;;;24.60;99.90;;;24.07;59.68;100882.31;5072507;28;19989;-63
2021/06/10 10:31:03;;;;;;;;;;;24.50;99.90;;;23.99;59.51;100880.66;5072302;28;20540;-65
2021/06/10 10:33:31;;;;;;;;;;;24.40;99.90;;;24.07;59.63;100876.81;5072566;28;19928;-63
2021/06/10 10:36:03;;;;;;;;;;;24.50;99.90;;;24.16;59.07;100875.34;5072010;28;19925;-63
2021/06/10 10:38:32;;;;;;;;;;;24.60;99.90;;;24.37;58.93;100867.25;5072601;28;19925;-66
2021/06/10 10:41:03;;;;;;;;;;;24.80;99.90;;;24.60;58.41;100863.47;5072227;28;19931;-64
2021/06/10 10:43:31;;;;;;;;;;;24.90;99.90;;;24.63;57.39;100855.22;5072548;28;19925;-64
2021/06/10 10:46:09;;;;;;;;;;;25.10;99.90;;;24.80;55.80;100853.75;5071068;28;19928;-63
2021/06/10 10:48:38;;;;;;;;;;;25.20;99.90;;;25.10;55.46;100856.34;5072550;28;19924;-65
2021/06/10 10:51:34;;;;;;;;;;;25.50;99.90;;;25.01;54.85;100851.16;5072605;28;19924;-65
2021/06/10 10:54:03;;;;;;;;;;;25.40;99.90;;;25.02;54.92;100844.44;5058856;28;20294;-65
2021/06/10 10:56:38;;;;;;;;;;;25.40;99.90;;;25.18;55.24;100835.81;5071571;28;20023;-65
2021/06/10 10:59:15;;;;;;;;;;;25.60;99.90;;;25.34;53.53;100847.38;5071994;28;19928;-66
2021/06/10 11:01:43;;;;;;;;;;;25.70;99.90;;;25.23;54.39;100847.31;5071973;28;19925;-65
2021/06/10 11:04:49;;;;;;;;;;;25.50;99.90;;;25.51;54.50;100830.06;5072290;28;19932;-65
2021/06/10 11:07:49;;;;;;;;;;;25.70;99.90;;;25.71;53.36;100842.41;5072233;28;19977;-65
2021/06/10 11:11:01;;;;;;;;;;;26.00;99.90;;;25.92;54.28;100827.81;5071479;28;19932;-63
2021/06/10 11:13:32;;;;;;;;;;;26.20;99.90;;;26.27;53.34;100835.38;5072197;28;19928;-65
2021/06/10 11:16:05;;;;;;;;;;;26.70;99.90;;;26.05;53.85;100832.56;5068996;28;19925;-66
2021/06/10 11:18:57;;;;;;;;;;;26.50;99.90;;;26.15;53.36;100831.00;5072000;28;20513;-65